Time;durP1;ratioP1;P1;durP2;ratioP2;P2;SDS_P1;SDS_P2;PMS_P1;PMS_P2;Temp;Humidity;BMP_temperature;BMP_pressure;BME280_temperature;BME280_humidity;BME280_pressure;Samples;Min_cycle;Max_cycle;Signal;HPM_P1;HPM_P2
2023/07/13 00:00:18;;;;;;;;;;;;;;;17.76;62.20;100445.38;105247;1286;71293;-83
2023/07/13 00:03:04;;;;;;;;;;;;;;;17.72;62.33;100449.41;105333;1288;61253;-83
2023/07/13 00:05:57;;;;;;;;;;;;;;;17.64;62.24;100455.18;105400;1286;59423;-82
2023/07/13 00:08:43;;;;;;;;;;;;;;;17.57;62.45;100466.16;105379;1286;72234;-83
2023/07/13 00:11:29;;;;;;;;;;;;;;;17.52;62.49;100475.95;105156;1287;68926;-83
2023/07/13 00:14:16;;;;;;;;;;;;;;;17.48;62.36;100478.77;105204;1286;74205;-83
2023/07/13 00:17:02;;;;;;;;;;;;;;;17.46;62.46;100477.30;105365;1286;61321;-84
2023/07/13 00:19:49;;;;;;;;;;;;;;;17.45;62.52;100488.51;105413;1290;61118;-83
2023/07/13 00:22:35;;;;;;;;;;;;;;;17.45;62.57;100503.32;105336;1286;73155;-83
2023/07/13 00:25:24;;;;;;;;;;;;;;;17.44;62.54;100511.05;105279;1286;67114;-83
2023/07/13 00:28:10;;;;;;;;;;;;;;;17.44;62.65;100518.70;105394;1290;71647;-83
2023/07/13 00:30:56;;;;;;;;;;;;;;;17.43;62.73;100520.66;105334;1286;61145;-83
2023/07/13 00:33:43;;;;;;;;;;;;;;;17.42;62.65;100527.14;105256;1286;62524;-83
2023/07/13 00:36:29;;;;;;;;;;;;;;;17.34;62.66;100532.75;105353;1286;73276;-83
2023/07/13 00:39:15;;;;;;;;;;;;;;;17.26;62.75;100534.69;105361;1288;68469;-83
2023/07/13 00:42:02;;;;;;;;;;;;;;;17.26;62.88;100530.52;105334;1286;71247;-83
2023/07/13 00:45:05;;;;;;;;;;;;;;;17.20;62.86;100522.23;105313;1285;61259;-83
2023/07/13 00:47:51;;;;;;;;;;;;;;;17.16;62.98;100518.55;105384;1287;60996;-83
2023/07/13 00:50:38;;;;;;;;;;;;;;;17.15;63.00;100514.27;105486;1286;74576;-83
2023/07/13 00:53:26;;;;;;;;;;;;;;;17.15;63.11;100508.05;105415;1286;67258;-83
2023/07/13 00:56:13;;;;;;;;;;;;;;;17.06;62.95;100504.92;105412;1287;76234;-83
2023/07/13 00:58:59;;;;;;;;;;;;;;;16.93;62.96;100507.95;105346;1288;61575;-83
2023/07/13 01:01:46;;;;;;;;;;;;;;;16.90;63.19;100509.15;105449;1286;61835;-83
2023/07/13 01:04:32;;;;;;;;;;;;;;;16.92;63.31;100511.13;105312;1286;74101;-83
2023/07/13 01:07:19;;;;;;;;;;;;;;;16.98;63.28;100507.76;105353;1286;67163;-83
2023/07/13 01:10:05;;;;;;;;;;;;;;;17.02;63.31;100502.33;105482;1288;73722;-83
2023/07/13 01:12:52;;;;;;;;;;;;;;;17.04;63.30;100501.89;105360;1286;61231;-83
2023/07/13 01:15:39;;;;;;;;;;;;;;;17.03;63.43;100504.88;105424;1285;60366;-83
2023/07/13 01:18:27;;;;;;;;;;;;;;;17.03;63.52;100508.88;105350;1287;74120;-83
2023/07/13 01:21:13;;;;;;;;;;;;;;;17.06;63.44;100516.80;105789;1288;67589;-83
2023/07/13 01:23:59;;;;;;;;;;;;;;;17.08;63.53;100515.30;105301;1286;72282;-83
2023/07/13 01:26:45;;;;;;;;;;;;;;;17.04;63.43;100510.77;105246;1286;208342;-83
2023/07/13 01:29:32;;;;;;;;;;;;;;;16.99;63.52;100515.68;105399;1285;61137;-83
2023/07/13 01:32:23;;;;;;;;;;;;;;;17.00;63.64;100520.34;105412;1288;74323;-83
2023/07/13 01:35:12;;;;;;;;;;;;;;;17.02;63.72;100523.08;105383;1290;68009;-83
2023/07/13 01:38:00;;;;;;;;;;;;;;;17.02;63.63;100525.67;105205;1286;72073;-83
2023/07/13 01:40:46;;;;;;;;;;;;;;;16.99;63.64;100524.73;105354;1286;61241;-83
2023/07/13 01:43:32;;;;;;;;;;;;;;;16.99;63.70;100522.17;105380;1286;59361;-83
2023/07/13 01:46:19;;;;;;;;;;;;;;;16.99;63.78;100522.13;105433;1285;75943;-83
2023/07/13 01:49:05;;;;;;;;;;;;;;;17.03;63.78;100531.92;105401;1287;66729;-83
2023/07/13 01:51:51;;;;;;;;;;;;;;;17.02;63.88;100531.92;105458;1285;73988;-83
2023/07/13 01:54:37;;;;;;;;;;;;;;;17.05;63.89;100533.55;105455;1288;61128;-83
2023/07/13 01:57:23;;;;;;;;;;;;;;;17.05;63.94;100522.73;105242;1285;61110;-83
2023/07/13 02:00:10;;;;;;;;;;;;;;;17.07;63.90;100519.33;105353;1285;73056;-83
2023/07/13 02:02:56;;;;;;;;;;;;;;;17.12;63.94;100521.59;105333;1286;70039;-83
2023/07/13 02:05:42;;;;;;;;;;;;;;;17.15;64.04;100521.09;105281;1287;71253;-83
2023/07/13 02:08:28;;;;;;;;;;;;;;;17.16;64.00;100517.15;105337;1286;61379;-83
2023/07/13 02:11:14;;;;;;;;;;;;;;;17.15;64.05;100515.33;105254;1285;61200;-83
2023/07/13 02:14:01;;;;;;;;;;;;;;;17.10;64.12;100506.48;105191;1286;73215;-83
2023/07/13 02:16:48;;;;;;;;;;;;;;;17.06;64.13;100501.61;105225;1288;67979;-83
2023/07/13 02:19:34;;;;;;;;;;;;;;;17.01;64.30;100501.69;105237;1290;74654;-83
2023/07/13 02:22:20;;;;;;;;;;;;;;;17.00;64.34;100496.69;105387;1286;61175;-83
2023/07/13 02:25:07;;;;;;;;;;;;;;;17.03;64.31;100494.10;105345;1287;61833;-83
2023/07/13 02:27:53;;;;;;;;;;;;;;;17.05;64.34;100498.73;105261;1286;76255;-83
2023/07/13 02:30:40;;;;;;;;;;;;;;;17.06;64.22;100495.55;105340;1286;67176;-83
2023/07/13 02:33:26;;;;;;;;;;;;;;;17.07;64.36;100503.84;105368;1285;74059;-83
2023/07/13 02:36:13;;;;;;;;;;;;;;;17.07;64.37;100511.67;105193;1287;61270;-83
2023/07/13 02:39:04;;;;;;;;;;;;;;;17.07;64.22;100509.23;105206;1287;61293;-83
2023/07/13 02:41:50;;;;;;;;;;;;;;;17.02;64.23;100504.22;105217;1286;73448;-83
2023/07/13 02:44:36;;;;;;;;;;;;;;;17.02;64.32;100507.75;105266;1285;68427;-83
2023/07/13 02:47:22;;;;;;;;;;;;;;;17.01;64.40;100505.35;105239;1286;71311;-83
2023/07/13 02:50:09;;;;;;;;;;;;;;;16.99;64.37;100498.99;105265;1286;61294;-83
2023/07/13 02:52:55;;;;;;;;;;;;;;;16.99;64.34;100501.23;105250;1286;61005;-83
2023/07/13 02:55:41;;;;;;;;;;;;;;;16.99;64.28;100496.36;105346;1287;73522;-83
2023/07/13 02:58:27;;;;;;;;;;;;;;;16.98;64.31;100499.21;105413;1287;67338;-83
2023/07/13 03:01:18;;;;;;;;;;;;;;;16.96;64.38;100505.91;105433;1287;72550;-84
2023/07/13 03:04:05;;;;;;;;;;;;;;;16.91;64.42;100511.16;105343;1288;61238;-83
2023/07/13 03:06:51;;;;;;;;;;;;;;;16.88;64.36;100510.79;105405;1286;61190;-83
2023/07/13 03:09:37;;;;;;;;;;;;;;;16.88;64.60;100520.34;105350;1289;75953;-83
2023/07/13 03:12:23;;;;;;;;;;;;;;;16.90;64.48;100525.85;105452;1285;67261;-83
2023/07/13 03:15:10;;;;;;;;;;;;;;;16.88;64.64;100528.38;105455;1286;71653;-83
2023/07/13 03:17:56;;;;;;;;;;;;;;;16.88;64.58;100531.68;105437;1285;61199;-83
2023/07/13 03:20:42;;;;;;;;;;;;;;;16.87;64.58;100522.31;105315;1287;59211;-83
2023/07/13 03:23:28;;;;;;;;;;;;;;;16.90;64.75;100519.42;105360;1286;73492;-83
2023/07/13 03:26:20;;;;;;;;;;;;;;;16.94;64.76;100513.52;105500;1286;66598;-83
2023/07/13 03:29:06;;;;;;;;;;;;;;;16.95;64.77;100506.83;105402;1285;71223;-83
2023/07/13 03:31:52;;;;;;;;;;;;;;;16.91;64.72;100501.44;105364;1286;61243;-83
2023/07/13 03:34:38;;;;;;;;;;;;;;;16.84;64.89;100508.15;105321;1286;61379;-83
2023/07/13 03:37:24;;;;;;;;;;;;;;;16.87;64.89;100513.97;105393;1291;75044;-83
2023/07/13 03:40:11;;;;;;;;;;;;;;;16.93;64.81;100510.23;105291;1287;67714;-83
2023/07/13 03:42:57;;;;;;;;;;;;;;;16.96;64.79;100511.66;105356;1285;72566;-83
2023/07/13 03:45:43;;;;;;;;;;;;;;;16.99;64.93;100523.02;105365;1288;61176;-83
2023/07/13 03:48:29;;;;;;;;;;;;;;;17.07;64.94;100522.64;105328;1287;59540;-83
2023/07/13 03:51:16;;;;;;;;;;;;;;;17.13;64.91;100516.13;105331;1285;74486;-83
2023/07/13 03:54:03;;;;;;;;;;;;;;;17.10;64.89;100511.05;105331;1286;68003;-83
2023/07/13 03:56:49;;;;;;;;;;;;;;;17.09;65.08;100515.27;105278;1291;72445;-83
2023/07/13 03:59:35;;;;;;;;;;;;;;;17.17;65.29;100521.14;105405;1285;61234;-83
2023/07/13 04:02:22;;;;;;;;;;;;;;;17.28;65.37;100527.42;105455;1285;61180;-84
2023/07/13 04:05:08;;;;;;;;;;;;;;;17.38;65.42;100528.36;105348;1286;73301;-83
2023/07/13 04:07:54;;;;;;;;;;;;;;;17.47;65.43;100536.50;105421;1286;67126;-83
2023/07/13 04:10:40;;;;;;;;;;;;;;;17.56;65.55;100538.73;105354;1286;71246;-84
2023/07/13 04:13:26;;;;;;;;;;;;;;;17.65;65.53;100537.95;105357;1286;61353;-83
2023/07/13 04:16:12;;;;;;;;;;;;;;;17.74;65.50;100545.38;105335;1289;59972;-84
2023/07/13 04:18:59;;;;;;;;;;;;;;;17.82;65.54;100552.51;105388;1286;73369;-83
2023/07/13 04:21:45;;;;;;;;;;;;;;;17.91;65.64;100569.70;105346;1285;67508;-83
2023/07/13 04:24:31;;;;;;;;;;;;;;;17.97;65.56;100573.95;105535;1285;71253;-83
2023/07/13 04:27:17;;;;;;;;;;;;;;;18.06;65.69;100577.90;105364;1287;61270;-83
2023/07/13 04:30:03;;;;;;;;;;;;;;;18.16;65.69;100577.05;105379;1286;61325;-84
2023/07/13 04:32:52;;;;;;;;;;;;;;;18.25;65.78;100575.20;105313;1286;72536;-85
2023/07/13 04:35:38;;;;;;;;;;;;;;;18.32;65.65;100569.61;105365;1288;68553;-83
2023/07/13 04:38:24;;;;;;;;;;;;;;;18.41;65.71;100570.56;105436;1286;71225;-84
2023/07/13 04:41:11;;;;;;;;;;;;;;;18.50;65.67;100571.51;105359;1287;61169;-83
2023/07/13 04:43:57;;;;;;;;;;;;;;;18.52;65.64;100569.33;105416;1286;61054;-83
2023/07/13 04:46:43;;;;;;;;;;;;;;;18.51;65.60;100567.95;105348;1286;74238;-84
2023/07/13 04:49:29;;;;;;;;;;;;;;;18.51;65.72;100569.03;105417;1287;67227;-83
2023/07/13 04:52:15;;;;;;;;;;;;;;;18.54;65.82;100574.11;105454;1285;71168;-84
2023/07/13 04:55:01;;;;;;;;;;;;;;;18.60;65.78;100574.39;105293;1286;167004;-84
2023/07/13 04:57:47;;;;;;;;;;;;;;;18.68;65.75;100575.04;105487;1286;61102;-84
2023/07/13 05:00:34;;;;;;;;;;;;;;;18.76;65.73;100575.98;105416;1286;74307;-84
2023/07/13 05:03:20;;;;;;;;;;;;;;;18.85;65.79;100573.09;105402;1287;67175;-84
2023/07/13 05:06:09;;;;;;;;;;;;;;;18.96;65.75;100569.36;105340;1288;71237;-84
2023/07/13 05:08:55;;;;;;;;;;;;;;;19.11;65.77;100575.91;105470;1286;61875;-84
2023/07/13 05:11:43;;;;;;;;;;;;;;;19.30;65.89;100584.85;105299;1291;60443;-84
2023/07/13 05:14:29;;;;;;;;;;;;;;;19.58;65.93;100598.61;105286;1286;72557;-84
2023/07/13 05:17:15;;;;;;;;;;;;;;;20.03;66.04;100604.02;105488;1290;69881;-84
2023/07/13 05:20:01;;;;;;;;;;;;;;;20.63;65.88;100604.83;105318;1288;71272;-84
2023/07/13 05:22:47;;;;;;;;;;;;;;;21.24;65.60;100598.73;105302;1288;61253;-84
2023/07/13 05:25:33;;;;;;;;;;;;;;;21.82;65.22;100603.73;105337;1286;61147;-84
2023/07/13 05:28:20;;;;;;;;;;;;;;;22.37;64.92;100601.77;105490;1288;74527;-84
2023/07/13 05:31:09;;;;;;;;;;;;;;;22.88;64.64;100602.61;105475;1286;67576;-84
2023/07/13 05:33:55;;;;;;;;;;;;;;;23.12;64.29;100602.69;105452;1285;72042;-84
2023/07/13 05:36:41;;;;;;;;;;;;;;;23.21;64.17;100604.89;105453;1291;61234;-84
2023/07/13 05:39:28;;;;;;;;;;;;;;;23.22;64.16;100607.63;105558;1286;61448;-84
2023/07/13 05:42:14;;;;;;;;;;;;;;;23.22;63.93;100604.31;105498;1289;76802;-84
2023/07/13 05:45:00;;;;;;;;;;;;;;;23.18;63.83;100605.78;105333;1285;70615;-84
2023/07/13 05:47:46;;;;;;;;;;;;;;;23.18;63.91;100605.66;105509;1288;71362;-84
2023/07/13 05:50:33;;;;;;;;;;;;;;;23.22;63.99;100614.48;105410;1286;61234;-84
2023/07/13 05:53:19;;;;;;;;;;;;;;;23.34;63.90;100613.65;105479;1286;61204;-84
2023/07/13 05:56:05;;;;;;;;;;;;;;;23.41;63.77;100618.42;105371;1288;76008;-84
2023/07/13 05:58:51;;;;;;;;;;;;;;;23.40;63.62;100619.17;105452;1285;67103;-84
2023/07/13 06:01:37;;;;;;;;;;;;;;;23.39;63.47;100618.05;105570;1285;71317;-84
2023/07/13 06:04:23;;;;;;;;;;;;;;;23.36;63.34;100620.06;105474;1289;61157;-84
2023/07/13 06:07:09;;;;;;;;;;;;;;;23.31;63.20;100619.66;105388;1286;61103;-84
2023/07/13 06:09:55;;;;;;;;;;;;;;;23.28;63.14;100620.04;105374;1287;75999;-84
2023/07/13 06:12:41;;;;;;;;;;;;;;;23.28;63.04;100621.10;105549;1285;66220;-84
2023/07/13 06:15:27;;;;;;;;;;;;;;;23.31;63.08;100626.52;105446;1286;71166;-84
2023/07/13 06:18:13;;;;;;;;;;;;;;;23.30;62.95;100631.86;105486;1285;62011;-84
2023/07/13 06:20:59;;;;;;;;;;;;;;;23.30;62.94;100641.60;105446;1285;62767;-84
2023/07/13 06:23:47;;;;;;;;;;;;;;;23.30;62.90;100640.66;105430;1285;74694;-84
2023/07/13 06:26:33;;;;;;;;;;;;;;;23.42;62.87;100643.71;105459;1288;67410;-84
2023/07/13 06:29:19;;;;;;;;;;;;;;;23.60;62.75;100648.80;105500;1288;74061;-84
2023/07/13 06:32:06;;;;;;;;;;;;;;;24.11;62.72;100645.85;105489;1287;61351;-84
2023/07/13 06:34:52;;;;;;;;;;;;;;;24.55;62.17;100647.40;105391;1288;61250;-84
2023/07/13 06:37:38;;;;;;;;;;;;;;;24.93;61.93;100648.25;105545;1286;73171;-84
2023/07/13 06:40:24;;;;;;;;;;;;;;;25.80;61.70;100648.02;105522;1286;68425;-84
2023/07/13 06:43:10;;;;;;;;;;;;;;;26.89;61.46;100651.52;105404;1286;72267;-84
2023/07/13 06:45:56;;;;;;;;;;;;;;;28.07;60.73;100658.31;105334;1288;60887;-84
2023/07/13 06:48:42;;;;;;;;;;;;;;;28.58;59.84;100658.27;105506;1288;61161;-84
2023/07/13 06:51:28;;;;;;;;;;;;;;;28.76;59.95;100663.40;105439;1286;73191;-85
2023/07/13 06:54:14;;;;;;;;;;;;;;;29.00;59.47;100656.77;105529;1288;67234;-85
2023/07/13 06:57:00;;;;;;;;;;;;;;;29.02;59.37;100659.21;105336;1285;71378;-85
2023/07/13 06:59:46;;;;;;;;;;;;;;;29.34;59.22;100659.57;105511;1285;61209;-84
2023/07/13 07:02:32;;;;;;;;;;;;;;;29.75;58.90;100661.20;105572;1285;59683;-85
2023/07/13 07:05:21;;;;;;;;;;;;;;;29.77;58.40;100656.15;105276;1286;302190;-84
2023/07/13 07:08:08;;;;;;;;;;;;;;;29.40;58.23;100654.44;105667;1285;71306;-84
2023/07/13 07:10:55;;;;;;;;;;;;;;;29.16;58.11;100659.52;105511;1286;72083;-84
2023/07/13 07:13:41;;;;;;;;;;;;;;;28.90;57.96;100660.66;105530;1286;61119;-84
2023/07/13 07:16:27;;;;;;;;;;;;;;;28.52;57.72;100666.46;105528;1288;61296;-84
2023/07/13 07:19:13;;;;;;;;;;;;;;;28.19;57.73;100670.33;105460;1286;73218;-84
2023/07/13 07:21:59;;;;;;;;;;;;;;;27.89;57.42;100666.42;105477;1288;67955;-84
2023/07/13 07:24:45;;;;;;;;;;;;;;;27.57;57.27;100659.64;105587;1286;71223;-84
2023/07/13 07:27:32;;;;;;;;;;;;;;;27.29;57.24;100657.27;105445;1287;59145;-84
2023/07/13 07:30:18;;;;;;;;;;;;;;;27.06;57.18;100658.04;105620;1285;60362;-84
2023/07/13 07:33:04;;;;;;;;;;;;;;;26.91;57.10;100662.14;105404;1287;72849;-84
2023/07/13 07:35:50;;;;;;;;;;;;;;;27.01;56.93;100665.57;105356;1288;67553;-84
2023/07/13 07:38:36;;;;;;;;;;;;;;;27.03;56.67;100667.14;105398;1285;71170;-84
2023/07/13 07:41:22;;;;;;;;;;;;;;;27.02;56.69;100664.56;105446;1288;61052;-84
2023/07/13 07:44:10;;;;;;;;;;;;;;;27.18;56.46;100664.64;105442;1286;61090;-84
2023/07/13 07:46:56;;;;;;;;;;;;;;;27.33;56.00;100660.89;105557;1285;74475;-84
2023/07/13 07:49:42;;;;;;;;;;;;;;;27.50;55.85;100664.50;105407;1288;67455;-84
2023/07/13 07:52:28;;;;;;;;;;;;;;;27.80;55.75;100665.83;105530;1290;73995;-84
2023/07/13 07:55:14;;;;;;;;;;;;;;;28.22;55.43;100665.44;105544;1285;59069;-84
2023/07/13 07:58:10;;;;;;;;;;;;;;;29.03;55.05;100663.01;105569;1286;61069;-84
2023/07/13 08:01:04;;;;;;;;;;;;;;;29.64;54.78;100665.23;105487;1288;74653;-84
2023/07/13 08:03:51;;;;;;;;;;;;;;;29.78;54.27;100666.38;105781;1288;67349;-84
2023/07/13 08:06:37;;;;;;;;;;;;;;;30.13;54.46;100667.08;105587;1285;74538;-84
2023/07/13 08:09:23;;;;;;;;;;;;;;;31.11;54.40;100667.43;105529;1288;59131;-84
2023/07/13 08:12:09;;;;;;;;;;;;;;;32.31;53.88;100672.49;105522;1288;61184;-85
2023/07/13 08:14:57;;;;;;;;;;;;;;;34.31;53.44;100670.19;105608;1285;74512;-85
2023/07/13 08:17:43;;;;;;;;;;;;;;;36.40;52.86;100674.46;105580;1286;67452;-85
2023/07/13 08:20:29;;;;;;;;;;;;;;;38.02;51.83;100668.95;105602;1285;71789;-85
2023/07/13 08:23:16;;;;;;;;;;;;;;;39.04;52.13;100660.18;105598;1287;59252;-85
2023/07/13 08:26:04;;;;;;;;;;;;;;;40.37;51.81;100661.30;105129;1287;293137;-86
2023/07/13 08:28:50;;;;;;;;;;;;;;;41.59;51.12;100656.08;105594;1287;74869;-85
2023/07/13 08:31:36;;;;;;;;;;;;;;;40.87;50.09;100654.90;105598;1289;71338;-84
2023/07/13 08:34:22;;;;;;;;;;;;;;;38.95;50.53;100654.64;105469;1287;71683;-84
2023/07/13 08:37:09;;;;;;;;;;;;;;;37.92;50.72;100656.48;105545;1287;61003;-84
2023/07/13 08:39:55;;;;;;;;;;;;;;;38.29;50.61;100658.14;105544;1288;61357;-84
2023/07/13 08:43:04;;;;;;;;;;;;;;;38.63;49.60;100654.98;105558;1288;73730;-84
2023/07/13 08:45:58;;;;;;;;;;;;;;;39.87;49.03;100657.02;104959;1293;68709;-85
2023/07/13 08:48:46;;;;;;;;;;;;;;;41.07;48.20;100654.96;104853;1293;71238;-85
2023/07/13 08:51:40;;;;;;;;;;;;;;;40.30;47.59;100655.91;104888;1294;61891;-84
2023/07/13 08:54:31;;;;;;;;;;;;;;;38.74;47.11;100657.50;104997;1294;59713;-84
2023/07/13 08:57:23;;;;;;;;;;;;;;;37.17;47.02;100655.98;104883;1293;76034;-84
2023/07/13 09:00:11;;;;;;;;;;;;;;;35.68;46.65;100656.00;104875;1294;67258;-84
2023/07/13 09:02:59;;;;;;;;;;;;;;;34.53;46.49;100656.16;105879;1294;71450;-84
2023/07/13 09:05:48;;;;;;;;;;;;;;;33.54;46.03;100655.59;105639;1293;59339;-84
2023/07/13 09:08:52;;;;;;;;;;;;;;;32.67;45.67;100658.66;104871;1292;59210;-84
2023/07/13 09:11:38;;;;;;;;;;;;;;;31.99;45.58;100658.27;104875;1293;73287;-83
2023/07/13 09:14:51;;;;;;;;;;;;;;;31.54;45.35;100654.30;104839;1294;68504;-83
2023/07/13 09:17:42;;;;;;;;;;;;;;;31.05;45.13;100646.90;104380;1300;73967;-83
2023/07/13 09:20:34;;;;;;;;;;;;;;;30.67;45.07;100647.46;104364;1299;59488;-86
2023/07/13 09:23:21;;;;;;;;;;;;;;;30.38;44.86;100644.73;104677;1298;59621;-86
2023/07/13 09:26:10;;;;;;;;;;;;;;;30.16;44.64;100644.41;104815;1293;73242;-86
2023/07/13 09:29:19;;;;;;;;;;;;;;;29.95;44.55;100639.67;104853;1293;69100;-86
2023/07/13 09:32:07;;;;;;;;;;;;;;;29.77;44.42;100642.50;104782;1294;71145;-86
2023/07/13 09:34:54;;;;;;;;;;;;;;;29.71;44.58;100639.90;104902;1293;61245;-86
2023/07/13 09:37:42;;;;;;;;;;;;;;;29.61;44.32;100640.13;104864;1294;59907;-86
2023/07/13 09:41:01;;;;;;;;;;;;;;;29.53;44.28;100632.20;104991;1294;73417;-86
2023/07/13 09:44:05;;;;;;;;;;;;;;;29.32;44.17;100634.90;104756;1295;71249;-86
2023/07/13 09:46:53;;;;;;;;;;;;;;;29.09;43.98;100639.23;104944;1293;71880;-86
2023/07/13 09:49:39;;;;;;;;;;;;;;;28.94;44.10;100636.54;104938;1294;61096;-86
2023/07/13 09:52:27;;;;;;;;;;;;;;;28.86;44.01;100633.49;104973;1294;59621;-86
2023/07/13 09:55:34;;;;;;;;;;;;;;;28.77;43.94;100633.64;105399;1286;73976;-86
2023/07/13 09:58:22;;;;;;;;;;;;;;;28.74;44.11;100636.08;105578;1286;68501;-86
2023/07/13 10:01:08;;;;;;;;;;;;;;;28.67;43.98;100641.27;105628;1287;74293;-86
2023/07/13 10:03:54;;;;;;;;;;;;;;;28.62;43.97;100646.21;105559;1289;61034;-86
2023/07/13 10:06:42;;;;;;;;;;;;;;;28.62;43.89;100647.92;105522;1291;61276;-86
2023/07/13 10:09:28;;;;;;;;;;;;;;;28.51;43.48;100642.86;105598;1285;74114;-86
2023/07/13 10:12:15;;;;;;;;;;;;;;;28.31;43.34;100649.72;105515;1285;67452;-86
2023/07/13 10:15:01;;;;;;;;;;;;;;;28.13;43.41;100644.98;105553;1288;72358;-86
2023/07/13 10:17:48;;;;;;;;;;;;;;;27.93;43.34;100648.89;105450;1285;59198;-86
2023/07/13 10:20:35;;;;;;;;;;;;;;;27.74;43.40;100649.19;105868;1287;61291;-86
2023/07/13 10:23:24;;;;;;;;;;;;;;;27.61;43.64;100647.65;105530;1285;74585;-86
2023/07/13 10:26:16;;;;;;;;;;;;;;;27.56;43.49;100646.85;105487;1285;68560;-86
2023/07/13 10:29:10;;;;;;;;;;;;;;;27.49;43.57;100650.41;105590;1289;71149;-86
2023/07/13 10:31:57;;;;;;;;;;;;;;;27.44;43.54;100655.30;106422;1286;59061;-86
2023/07/13 10:34:46;;;;;;;;;;;;;;;27.41;43.46;100655.37;105467;1285;59820;-86
2023/07/13 10:37:39;;;;;;;;;;;;;;;27.44;43.55;100650.55;105505;1285;73445;-86
2023/07/13 10:40:29;;;;;;;;;;;;;;;27.48;43.52;100652.52;105552;1287;67456;-86
2023/07/13 10:43:18;;;;;;;;;;;;;;;27.51;43.58;100651.02;105543;1288;74092;-86
2023/07/13 10:46:06;;;;;;;;;;;;;;;27.53;43.46;100646.52;105422;1286;61282;-86
2023/07/13 10:48:55;;;;;;;;;;;;;;;27.55;43.69;100647.30;105517;1287;61282;-85
2023/07/13 10:51:41;;;;;;;;;;;;;;;27.58;43.54;100642.02;105494;1287;73334;-86
2023/07/13 10:54:34;;;;;;;;;;;;;;;27.59;43.46;100643.02;105504;1286;68689;-84
2023/07/13 10:57:21;;;;;;;;;;;;;;;27.62;43.37;100640.27;105545;1291;71431;-84
2023/07/13 11:00:15;;;;;;;;;;;;;;;27.58;43.46;100642.95;105558;1286;61321;-84
2023/07/13 11:03:02;;;;;;;;;;;;;;;27.55;43.35;100642.85;106585;1286;59047;-85
2023/07/13 11:05:50;;;;;;;;;;;;;;;27.50;43.25;100648.40;106583;1288;73283;-84
2023/07/13 11:08:51;;;;;;;;;;;;;;;27.44;43.27;100648.57;105630;1289;67278;-84
2023/07/13 11:11:38;;;;;;;;;;;;;;;27.40;43.32;100654.58;105416;1288;71425;-84
2023/07/13 11:14:50;;;;;;;;;;;;;;;27.26;43.42;100651.34;105427;1291;61372;-84
2023/07/13 11:17:38;;;;;;;;;;;;;;;27.18;43.44;100650.42;104948;1293;61243;-84
2023/07/13 11:20:44;;;;;;;;;;;;;;;27.05;43.68;100655.98;104879;1294;73428;-84
2023/07/13 11:23:32;;;;;;;;;;;;;;;26.96;43.65;100659.05;104858;1293;68464;-84
2023/07/13 11:26:37;;;;;;;;;;;;;;;26.93;43.75;100656.43;104771;1292;71222;-84
2023/07/13 11:29:32;;;;;;;;;;;;;;;26.95;43.82;100655.43;104831;1298;61309;-84
2023/07/13 11:32:23;;;;;;;;;;;;;;;26.92;43.40;100651.41;104884;1294;61133;-84
2023/07/13 11:35:19;;;;;;;;;;;;;;;26.82;43.33;100642.92;104846;1294;76065;-84
2023/07/13 11:38:14;;;;;;;;;;;;;;;26.78;43.44;100644.67;104741;1293;68868;-84
2023/07/13 11:41:03;;;;;;;;;;;;;;;26.75;43.12;100640.50;104849;1293;71403;-84
2023/07/13 11:43:50;;;;;;;;;;;;;;;26.66;43.07;100643.70;104839;1293;61303;-84
2023/07/13 11:46:36;;;;;;;;;;;;;;;26.63;43.17;100637.89;105001;1294;61260;-84
2023/07/13 11:49:26;;;;;;;;;;;;;;;26.66;43.12;100631.32;104833;1297;73575;-84
2023/07/13 11:52:15;;;;;;;;;;;;;;;26.73;43.06;100624.54;104786;1294;67526;-84
2023/07/13 11:55:04;;;;;;;;;;;;;;;26.82;43.08;100623.82;105155;1287;72865;-84
2023/07/13 11:57:58;;;;;;;;;;;;;;;26.84;43.01;100633.67;105332;1291;61452;-84
2023/07/13 12:00:44;;;;;;;;;;;;;;;26.84;43.00;100636.33;105368;1286;59324;-84
2023/07/13 12:03:32;;;;;;;;;;;;;;;26.86;42.94;100633.02;105258;1286;74001;-84
2023/07/13 12:06:21;;;;;;;;;;;;;;;26.91;42.85;100637.00;105255;1288;68509;-84
2023/07/13 12:09:27;;;;;;;;;;;;;;;;;;;;;
2023/07/13 12:12:22;;;;;;;;;;;;;;;27.15;42.60;100645.60;105418;1286;61059;-84
2023/07/13 12:15:08;;;;;;;;;;;;;;;27.13;42.48;100647.40;105440;1290;61183;-84
2023/07/13 12:17:56;;;;;;;;;;;;;;;27.10;42.57;100641.58;105447;1287;74124;-84
2023/07/13 12:20:43;;;;;;;;;;;;;;;27.10;42.60;100642.29;105408;1288;67329;-84
2023/07/13 12:23:49;;;;;;;;;;;;;;;27.21;42.46;100638.20;105435;1289;71266;-84
2023/07/13 12:26:35;;;;;;;;;;;;;;;27.29;42.36;100636.08;104847;1294;61283;-84
2023/07/13 12:29:21;;;;;;;;;;;;;;;27.33;42.24;100642.64;104809;1293;61621;-84
2023/07/13 12:32:17;;;;;;;;;;;;;;;27.40;42.27;100644.55;104747;1297;76289;-84
2023/07/13 12:35:16;;;;;;;;;;;;;;;27.41;42.02;100641.11;104728;1295;69947;-84
2023/07/13 12:38:02;;;;;;;;;;;;;;;27.39;41.99;100640.02;104733;1294;72607;-84
2023/07/13 12:40:50;;;;;;;;;;;;;;;27.36;41.82;100640.59;104805;1294;63561;-84
2023/07/13 12:43:40;;;;;;;;;;;;;;;27.29;41.69;100637.27;104704;1296;59562;-84
2023/07/13 12:46:28;;;;;;;;;;;;;;;27.25;41.75;100630.96;104758;1294;73158;-84
2023/07/13 12:49:15;;;;;;;;;;;;;;;27.21;41.69;100634.77;104732;1293;71379;-84
2023/07/13 12:52:02;;;;;;;;;;;;;;;27.11;41.58;100635.98;104718;1295;71246;-84
2023/07/13 12:55:00;;;;;;;;;;;;;;;27.06;41.61;100632.60;104707;1293;61318;-84
2023/07/13 12:57:51;;;;;;;;;;;;;;;27.03;41.45;100628.71;104840;1296;59813;-84
2023/07/13 13:00:38;;;;;;;;;;;;;;;26.99;41.27;100637.95;104766;1294;75402;-85
2023/07/13 13:03:25;;;;;;;;;;;;;;;26.93;41.25;100633.30;104954;1287;67724;-84
2023/07/13 13:06:18;;;;;;;;;;;;;;;26.85;41.03;100633.93;105475;1288;71412;-84
2023/07/13 13:09:09;;;;;;;;;;;;;;;26.78;41.17;100626.45;105500;1286;61256;-84
2023/07/13 13:11:55;;;;;;;;;;;;;;;26.75;40.93;100621.73;105498;1288;62876;-84
2023/07/13 13:14:41;;;;;;;;;;;;;;;26.73;40.93;100623.84;105478;1291;74473;-84
2023/07/13 13:17:31;;;;;;;;;;;;;;;26.67;40.74;100623.23;105467;1289;68277;-84
2023/07/13 13:20:21;;;;;;;;;;;;;;;26.66;40.90;100621.58;105299;1286;71732;-84
2023/07/13 13:23:11;;;;;;;;;;;;;;;26.69;40.90;100623.06;105519;1289;61942;-84
2023/07/13 13:25:58;;;;;;;;;;;;;;;26.71;40.78;100622.04;105375;1286;61158;-83
2023/07/13 13:28:44;;;;;;;;;;;;;;;26.70;40.62;100623.02;105374;1291;73165;-84
2023/07/13 13:31:30;;;;;;;;;;;;;;;26.66;40.53;100623.02;105544;1285;68586;-84
2023/07/13 13:34:17;;;;;;;;;;;;;;;26.52;40.35;100620.30;105460;1288;70372;-83
2023/07/13 13:37:05;;;;;;;;;;;;;;;26.49;40.59;100625.70;105332;1287;61345;-83
2023/07/13 13:40:19;;;;;;;;;;;;;;;26.46;40.52;100622.60;105473;1289;61314;-84
2023/07/13 13:43:13;;;;;;;;;;;;;;;26.44;40.44;100621.52;105463;1289;74114;-84
2023/07/13 13:46:02;;;;;;;;;;;;;;;26.40;40.43;100622.21;105416;1287;67587;-83
2023/07/13 13:48:49;;;;;;;;;;;;;;;26.32;40.44;100621.07;105377;1291;72610;-84
2023/07/13 13:51:35;;;;;;;;;;;;;;;26.22;40.33;100619.52;105330;1287;61157;-84
2023/07/13 13:54:23;;;;;;;;;;;;;;;26.19;40.41;100626.34;105323;1286;59370;-84
2023/07/13 13:57:12;;;;;;;;;;;;;;;26.24;40.51;100630.33;106563;1289;73389;-84
2023/07/13 13:59:57;;;;;;;;;;;;;;;26.31;40.34;100634.71;106591;1287;67248;-84
2023/07/13 14:02:50;;;;;;;;;;;;;;;26.35;40.24;100638.31;106559;1287;71400;-84
2023/07/13 14:05:40;;;;;;;;;;;;;;;26.38;40.22;100634.18;106492;1286;58972;-84
2023/07/13 14:08:25;;;;;;;;;;;;;;;26.41;40.16;100635.88;101875;1291;5177168;-84
2023/07/13 14:11:17;;;;;;;;;;;;;;;26.41;39.96;100639.09;105350;1287;74553;-84
2023/07/13 14:14:04;;;;;;;;;;;;;;;26.42;40.03;100636.00;105446;1288;66447;-83